createdAt,value
2016-04-05T00:00:52.952Z,79.21
2016-04-05T00:01:52.969Z,79.21
2016-04-05T00:02:52.988Z,79.3
2016-04-05T00:03:52.991Z,79.21
2016-04-05T00:04:53.025Z,79.02
2016-04-05T00:05:53.043Z,79.21
2016-04-05T00:06:53.063Z,78.92
2016-04-05T00:07:53.080Z,79.11
2016-04-05T00:08:53.099Z,79.02
2016-04-05T00:09:53.116Z,79.3
2016-04-05T00:10:52.979Z,79.02
2016-04-05T00:11:53.169Z,79.21
2016-04-05T00:12:53.171Z,78.92
2016-04-05T00:13:53.206Z,79.02
2016-04-05T00:14:53.208Z,78.92
2016-04-05T00:15:53.242Z,79.11
2016-04-05T00:16:53.260Z,79.21
2016-04-05T00:17:53.262Z,78.64
2016-04-05T00:18:53.298Z,78.64
2016-04-05T00:19:53.331Z,78.25
2016-04-05T00:20:53.334Z,78.16
2016-04-05T00:21:53.353Z,78.25
2016-04-05T00:22:53.386Z,78.3
2016-04-05T00:23:53.389Z,78.06
2016-04-05T00:24:53.422Z,78.16
2016-04-05T00:25:53.425Z,78.2
2016-04-05T00:26:53.459Z,77.91
2016-04-05T00:27:53.306Z,77.91
2016-04-05T00:28:53.497Z,77.91
2016-04-05T00:29:53.514Z,77.82
2016-04-05T00:30:53.533Z,77.72
2016-04-05T00:31:53.551Z,77.82
2016-04-05T00:32:53.570Z,77.82
2016-04-05T00:33:53.572Z,77.72
2016-04-05T00:34:53.622Z,77.44
2016-04-05T00:35:53.624Z,77.34
2016-04-05T00:36:53.643Z,77.82
2016-04-05T00:37:53.660Z,77.72
2016-04-05T00:38:53.710Z,77.91
2016-04-05T00:39:53.713Z,77.91
2016-04-05T00:40:53.716Z,77.62
2016-04-05T00:41:53.782Z,78.01
2016-04-05T00:42:53.784Z,77.91
2016-04-05T00:43:53.771Z,77.82
2016-04-05T00:44:53.804Z,78.01
2016-04-05T00:45:53.823Z,77.91
2016-04-05T00:46:53.841Z,77.62
2016-04-05T00:47:53.843Z,77.34
2016-04-05T00:48:53.893Z,77.53
2016-04-05T00:49:53.895Z,77.06
2016-04-05T00:50:53.914Z,77.44
2016-04-05T00:51:53.933Z,76.86
2016-04-05T00:52:53.950Z,77.44
2016-04-05T00:53:53.985Z,76.96
2016-04-05T00:54:53.987Z,77.25
2016-04-05T00:55:54.006Z,76.96
2016-04-05T00:56:54.040Z,76.57
2016-04-05T00:57:54.042Z,76.57
2016-04-05T00:58:54.077Z,76.57
2016-04-05T00:59:54.094Z,76.1
2016-04-05T01:00:54.097Z,76.2
2016-04-05T01:01:54.131Z,76.2
2016-04-05T01:02:54.150Z,76.29
2016-04-05T01:03:54.184Z,76.01
2016-04-05T01:04:54.219Z,76.57
2016-04-05T01:05:54.236Z,76.2
2016-04-05T01:06:54.239Z,76.01
2016-04-05T01:07:54.241Z,76.39
2016-04-05T01:08:54.260Z,76.39
2016-04-05T01:09:54.294Z,76.2
2016-04-05T01:10:54.312Z,76.48
2016-04-05T01:11:54.330Z,76.57
2016-04-05T01:12:54.348Z,76.39
2016-04-05T01:13:54.367Z,76.77
2016-04-05T01:14:54.385Z,76.86
2016-04-05T01:15:54.403Z,76.67
2016-04-05T01:16:54.421Z,76.67
2016-04-05T01:17:54.456Z,76.96
2016-04-05T01:18:54.459Z,76.77
2016-04-05T01:19:54.477Z,77.25
2016-04-05T01:20:54.511Z,77.44
2016-04-05T01:21:54.514Z,77.15
2016-04-05T01:22:54.547Z,77.15
2016-04-05T01:23:54.550Z,77.06
2016-04-05T01:24:54.584Z,77.06
2016-04-05T01:25:54.602Z,77.15
2016-04-05T01:26:54.620Z,77.06
2016-04-05T01:27:54.639Z,77.53
2016-04-05T01:28:54.641Z,77.44
2016-04-05T01:29:54.675Z,77.34
2016-04-05T01:30:54.694Z,77.44
2016-04-05T01:31:54.712Z,77.72
2016-04-05T01:32:54.731Z,77.72
2016-04-05T01:33:54.749Z,77.72
2016-04-05T01:34:54.767Z,77.72
2016-04-05T01:35:54.785Z,78.1
2016-04-05T01:36:54.819Z,77.72
2016-04-05T01:37:54.822Z,77.82
2016-04-05T01:38:54.840Z,77.72
2016-04-05T01:39:54.859Z,77.72
2016-04-05T01:40:54.877Z,77.82
2016-04-05T01:41:54.911Z,77.72
2016-04-05T01:42:54.914Z,77.91
2016-04-05T01:43:54.948Z,77.91
2016-04-05T01:44:54.951Z,78.01
2016-04-05T01:45:54.990Z,78.01
2016-04-05T01:46:54.998Z,77.91
2016-04-05T01:47:55.016Z,77.91
2016-04-05T01:48:56.332Z,77.82
2016-04-05T01:49:55.060Z,77.72
2016-04-05T01:50:55.093Z,77.72
2016-04-05T01:51:55.096Z,78.01
2016-04-05T01:52:55.115Z,77.82
2016-04-05T01:53:55.133Z,77.91
2016-04-05T01:54:55.152Z,77.91
2016-04-05T01:55:55.170Z,77.72
2016-04-05T01:56:55.189Z,78.01
2016-04-05T01:57:55.206Z,77.72
2016-04-05T01:58:55.225Z,77.91
2016-04-05T01:59:55.259Z,77.62
2016-04-05T02:00:55.262Z,77.91
2016-04-05T02:01:55.295Z,78.49
2016-04-05T02:02:55.298Z,78.39
2016-04-05T02:03:55.317Z,78.39
2016-04-05T02:04:55.351Z,78.2
2016-04-05T02:06:55.387Z,78.2
2016-04-05T02:07:55.395Z,78.39
2016-04-05T02:08:55.414Z,78.2
2016-04-05T02:09:55.432Z,78.49
2016-04-05T02:10:55.466Z,78.3
2016-04-05T02:11:55.468Z,78.2
2016-04-05T02:12:55.486Z,78.2
2016-04-05T02:13:55.505Z,78.2
2016-04-05T02:14:55.554Z,77.82
2016-04-05T02:15:55.541Z,78.49
2016-04-05T02:16:55.575Z,78.3
2016-04-05T02:17:55.593Z,78.39
2016-04-05T02:18:55.612Z,78.3
2016-04-05T02:19:55.630Z,78.1
2016-04-05T02:20:55.665Z,78.2
2016-04-05T02:21:55.682Z,78.1
2016-04-05T02:22:55.685Z,78.77
2016-04-05T02:23:55.704Z,78.77
2016-04-05T02:24:55.737Z,78.39
2016-04-05T02:25:55.756Z,78.58
2016-04-05T02:26:55.758Z,78.86
2016-04-05T02:27:55.792Z,78.67
2016-04-05T02:28:55.811Z,78.77
2016-04-05T02:29:55.953Z,78.86
2016-04-05T02:30:55.848Z,78.67
2016-04-05T02:31:55.866Z,78.86
2016-04-05T02:32:55.884Z,78.86
2016-04-05T02:33:55.917Z,78.67
2016-04-05T02:34:55.920Z,78.58
2016-04-05T02:35:55.939Z,78.83
2016-04-05T02:36:55.958Z,78.67
2016-04-05T02:37:55.975Z,79.06
2016-04-05T02:38:56.010Z,79.82
2016-04-05T02:39:56.012Z,79.72
2016-04-05T02:40:56.046Z,79.91
2016-04-05T02:41:56.064Z,79.91
2016-04-05T02:42:56.082Z,79.91
2016-04-05T02:43:56.102Z,79.91
2016-04-05T02:44:56.196Z,80.01
2016-04-05T02:45:56.140Z,79.63
2016-04-05T02:46:56.130Z,79.53
2016-04-05T02:47:56.135Z,79.63
2016-04-05T02:48:56.141Z,79.88
2016-04-05T02:49:56.162Z,79.82
2016-04-05T02:50:56.161Z,80.11
2016-04-05T02:51:56.175Z,80.3
2016-04-05T02:52:56.251Z,80.64
2016-04-05T02:53:56.202Z,81.21
2016-04-05T02:54:56.232Z,81.02
2016-04-05T02:55:56.233Z,81.02
2016-04-05T02:56:56.265Z,81.12
2016-04-05T02:57:56.266Z,80.83
2016-04-05T02:58:56.299Z,80.54
2016-04-05T02:59:56.362Z,80.83
2016-04-05T03:00:56.333Z,80.64
2016-04-05T03:01:56.351Z,80.92
2016-04-05T03:02:56.368Z,81.3
2016-04-05T03:03:56.401Z,81.97
2016-04-05T03:04:56.419Z,81.68
2016-04-05T03:05:56.422Z,81.68
2016-04-05T03:06:56.455Z,81.49
2016-04-05T03:07:56.458Z,81.4
2016-04-05T03:08:56.493Z,81.4
2016-04-05T03:09:56.511Z,81.78
2016-04-05T03:10:56.514Z,81.49
2016-04-05T03:11:56.532Z,81.78
2016-04-05T03:12:56.566Z,81.49
2016-04-05T03:13:56.585Z,81.3
2016-04-05T03:14:56.634Z,81.4
2016-04-05T03:15:56.621Z,80.73
2016-04-05T03:16:56.640Z,80.73
2016-04-05T03:17:56.657Z,80.92
2016-04-05T03:18:56.676Z,80.26
2016-04-05T03:19:56.693Z,80.26
2016-04-05T03:20:56.712Z,80.44
2016-04-05T03:21:56.731Z,80.35
2016-04-05T03:22:56.765Z,79.97
2016-04-05T03:23:56.767Z,80.26
2016-04-05T03:24:56.786Z,80.44
2016-04-05T03:25:56.804Z,80.54
2016-04-05T03:26:56.838Z,80.73
2016-04-05T03:27:56.856Z,80.83
2016-04-05T03:28:56.875Z,81.02
2016-04-05T03:29:56.940Z,81.4
2016-04-05T03:30:56.928Z,81.3
2016-04-05T03:31:56.931Z,81.78
2016-04-05T03:32:56.948Z,81.97
2016-04-05T03:33:56.967Z,82.17
2016-04-05T03:34:56.985Z,81.68
2016-04-05T03:35:56.985Z,81.4
2016-04-05T03:36:57.034Z,80.92
2016-04-05T03:37:57.036Z,80.54
2016-04-05T03:38:57.040Z,81.12
2016-04-05T03:39:57.074Z,80.73
2016-04-05T03:40:57.092Z,80.35
2016-04-05T03:41:57.110Z,81.02
2016-04-05T03:42:57.129Z,80.92
2016-04-05T03:43:57.132Z,80.73
2016-04-05T03:44:57.431Z,80.44
2016-04-05T03:45:57.183Z,80.44
2016-04-05T03:46:57.218Z,80.83
2016-04-05T03:47:57.221Z,80.64
2016-04-05T03:48:57.239Z,80.64
2016-04-05T03:49:57.257Z,80.26
2016-04-05T03:50:57.276Z,79.49
2016-04-05T03:51:57.293Z,79.78
2016-04-05T03:52:57.312Z,79.97
2016-04-05T03:53:57.330Z,80.07
2016-04-05T03:54:57.349Z,80.07
2016-04-05T03:55:57.368Z,79.68
2016-04-05T03:56:57.385Z,79.59
2016-04-05T03:57:57.404Z,79.4
2016-04-05T03:58:57.422Z,79.02
2016-04-05T03:59:56.753Z,79.15
2016-04-05T04:00:57.458Z,80.01
2016-04-05T04:01:57.492Z,79.72
2016-04-05T04:02:57.495Z,79.82
2016-04-05T04:03:57.528Z,79.91
2016-04-05T04:04:57.547Z,79.82
2016-04-05T04:05:57.566Z,79.72
2016-04-05T04:06:57.584Z,80.35
2016-04-05T04:07:57.603Z,80.2
2016-04-05T04:08:57.620Z,80.68
2016-04-05T04:09:57.639Z,81.06
2016-04-05T04:10:57.658Z,80.87
2016-04-05T04:11:57.692Z,80.87
2016-04-05T04:12:57.694Z,80.96
2016-04-05T04:13:57.713Z,81.12
2016-04-05T04:14:57.730Z,80.83
2016-04-05T04:15:57.764Z,81.63
2016-04-05T04:16:57.767Z,81.63
2016-04-05T04:17:57.801Z,81.3
2016-04-05T04:18:57.819Z,81.59
2016-04-05T04:19:57.822Z,80.83
2016-04-05T04:20:57.840Z,81.12
2016-04-05T04:21:57.874Z,81.73
2016-04-05T04:22:57.736Z,81.63
2016-04-05T04:23:57.910Z,81.63
2016-04-05T04:24:57.929Z,81.54
2016-04-05T04:25:57.963Z,81.59
2016-04-05T04:26:57.966Z,81.54
2016-04-05T04:27:57.984Z,81.44
2016-04-05T04:28:58.003Z,81.54
2016-04-05T04:29:58.051Z,82.3
2016-04-05T04:30:58.039Z,81.54
2016-04-05T04:31:58.073Z,81.63
2016-04-05T04:32:58.092Z,81.82
2016-04-05T04:33:58.095Z,81.82
2016-04-05T04:34:58.128Z,81.73
2016-04-05T04:35:58.146Z,81.44
2016-04-05T04:36:58.165Z,80.49
2016-04-05T04:37:58.183Z,80.3
2016-04-05T04:38:58.201Z,80.3
2016-04-05T04:39:58.220Z,81.35
2016-04-05T04:40:58.222Z,82.01
2016-04-05T04:41:58.256Z,81.92
2016-04-05T04:42:58.275Z,81.44
2016-04-05T04:43:58.293Z,81.63
2016-04-05T04:44:58.311Z,82.2
2016-04-05T04:45:58.330Z,82.49
2016-04-05T04:46:58.348Z,82.68
2016-04-05T04:47:58.366Z,82.59
2016-04-05T04:48:58.400Z,82.3
2016-04-05T04:49:58.418Z,82.4
2016-04-05T04:50:58.280Z,82.26
2016-04-05T04:51:58.471Z,82.2
2016-04-05T04:52:58.457Z,82.3
2016-04-05T04:53:58.492Z,81.92
2016-04-05T04:54:58.526Z,81.82
2016-04-05T04:55:58.543Z,81.73
2016-04-05T04:56:58.547Z,81.73
2016-04-05T04:57:58.581Z,82.3
2016-04-05T04:58:58.599Z,82.97
2016-04-05T04:59:58.617Z,83.92
2016-04-05T05:00:58.635Z,83.64
2016-04-05T05:01:58.638Z,84.3
2016-04-05T05:02:58.672Z,84.83
2016-04-05T05:03:58.690Z,84.59
2016-04-05T05:04:58.709Z,84.92
2016-04-05T05:05:58.727Z,85.31
2016-04-05T05:06:58.745Z,85.21
2016-04-05T05:07:58.764Z,85.78
2016-04-05T05:08:58.782Z,85.6
2016-04-05T05:09:58.816Z,86.26
2016-04-05T05:10:58.819Z,86.36
2016-04-05T05:11:58.837Z,86.55
2016-04-05T05:12:58.871Z,86.45
2016-04-05T05:13:58.874Z,86.93
2016-04-05T05:14:58.892Z,87.07
2016-04-05T05:15:58.911Z,87.21
2016-04-05T05:16:58.944Z,87.6
2016-04-05T05:17:58.962Z,87.21
2016-04-05T05:18:58.966Z,87.02
2016-04-05T05:19:58.983Z,87.79
2016-04-05T05:20:59.001Z,88.17
2016-04-05T05:21:59.036Z,88.17
2016-04-05T05:22:59.054Z,88.74
2016-04-05T05:23:59.072Z,88.74
2016-04-05T05:24:59.091Z,88.74
2016-04-05T05:25:59.109Z,88.93
2016-04-05T05:26:59.127Z,88.74
2016-04-05T05:27:59.146Z,89.03
2016-04-05T05:28:59.180Z,88.55
2016-04-05T05:29:59.182Z,88.36
2016-04-05T05:30:59.201Z,88.17
2016-04-05T05:31:59.218Z,88.74
2016-04-05T05:32:59.253Z,88.64
2016-04-05T05:33:59.256Z,88.55
2016-04-05T05:34:59.289Z,88.88
2016-04-05T05:35:59.292Z,89.12
2016-04-05T05:36:59.326Z,89.17
2016-04-05T05:38:02.359Z,89.36
2016-04-05T05:38:59.363Z,89.5
2016-04-05T05:39:59.365Z,88.98
2016-04-05T05:40:59.399Z,88.98
2016-04-05T05:41:59.418Z,88.98
2016-04-05T05:42:59.436Z,89.54
2016-04-05T05:43:59.455Z,89.45
2016-04-05T05:44:59.473Z,89.36
2016-04-05T05:45:59.491Z,89.36
2016-04-05T05:46:59.509Z,89.36
2016-04-05T05:47:59.527Z,89.74
2016-04-05T05:48:59.546Z,89.26
2016-04-05T05:49:59.579Z,89.83
2016-04-05T05:50:59.582Z,89.83
2016-04-05T05:51:59.616Z,90.03
2016-04-05T05:52:59.635Z,90.12
2016-04-05T05:53:59.653Z,89.74
2016-04-05T05:54:59.655Z,89.54
2016-04-05T05:55:59.674Z,89.93
2016-04-05T05:56:59.708Z,90.12
2016-04-05T05:57:59.726Z,90.12
2016-04-05T05:58:59.760Z,89.83
2016-04-05T05:59:59.763Z,89.54
2016-04-05T06:00:59.797Z,89.74
2016-04-05T06:01:59.799Z,89.26
2016-04-05T06:02:59.833Z,89.54
2016-04-05T06:03:59.837Z,89.17
2016-04-05T06:04:59.870Z,89.36
2016-04-05T06:05:59.888Z,89.36
2016-04-05T06:06:59.892Z,89.54
2016-04-05T06:07:59.925Z,89.26
2016-04-05T06:08:59.928Z,89.93
2016-04-05T06:09:59.962Z,90.12
2016-04-05T06:10:59.980Z,89.54
2016-04-05T06:11:59.998Z,89.93
2016-04-05T06:13:00.017Z,89.83
2016-04-05T06:14:00.050Z,89.93
2016-04-05T06:15:00.053Z,89.93
2016-04-05T06:16:00.072Z,89.93
2016-04-05T06:16:59.339Z,90.12
2016-04-05T06:18:00.108Z,89.93
2016-04-05T06:19:00.142Z,89.93
2016-04-05T06:20:00.176Z,90.31
2016-04-05T06:21:00.194Z,89.93
2016-04-05T06:22:00.197Z,90.5
2016-04-05T06:23:00.216Z,90.22
2016-04-05T06:24:00.234Z,90.22
2016-04-05T06:25:00.252Z,89.74
2016-04-05T06:26:00.270Z,89.64
2016-04-05T06:27:00.289Z,89.74
2016-04-05T06:28:00.323Z,90.22
2016-04-05T06:29:00.340Z,89.83
2016-04-05T06:30:00.360Z,90.22
2016-04-05T06:31:00.377Z,90.41
2016-04-05T06:32:00.380Z,90.03
2016-04-05T06:33:00.414Z,90.12
2016-04-05T06:34:00.417Z,90.59
2016-04-05T06:35:00.451Z,90.69
2016-04-05T06:36:00.469Z,90.5
2016-04-05T06:37:00.472Z,90.79
2016-04-05T06:38:00.506Z,90.41
2016-04-05T06:39:00.540Z,91.07
2016-04-05T06:40:00.542Z,91.17
2016-04-05T06:41:00.561Z,91.46
2016-04-05T06:42:00.595Z,91.07
2016-04-05T06:43:00.597Z,91.17
2016-04-05T06:44:00.616Z,91.17
2016-04-05T06:45:00.650Z,91.17
2016-04-05T06:46:00.684Z,91.17
2016-04-05T06:47:00.686Z,91.17
2016-04-05T06:48:00.688Z,90.98
2016-04-05T06:49:00.723Z,91.27
2016-04-05T06:50:00.741Z,91.46
2016-04-05T06:51:00.760Z,90.79
2016-04-05T06:52:00.778Z,91.17
2016-04-05T06:53:00.796Z,90.98
2016-04-05T06:54:00.814Z,91.27
2016-04-05T06:55:00.833Z,91.17
2016-04-05T06:56:00.851Z,90.98
2016-04-05T06:57:00.869Z,90.98
2016-04-05T06:58:00.904Z,90.98
2016-04-05T06:59:00.906Z,91.27
2016-04-05T07:00:00.924Z,91.27
2016-04-05T07:01:00.958Z,91.27
2016-04-05T07:02:00.976Z,90.98
2016-04-05T07:03:00.995Z,90.88
2016-04-05T07:04:01.013Z,90.69
2016-04-05T07:05:01.031Z,90.03
2016-04-05T07:06:01.050Z,90.03
2016-04-05T07:07:01.068Z,89.74
2016-04-05T07:08:01.088Z,89.74
2016-04-05T07:09:01.122Z,90.31
2016-04-05T07:10:01.125Z,89.93
2016-04-05T07:11:01.143Z,90.12
2016-04-05T07:12:01.177Z,89.83
2016-04-05T07:13:01.195Z,89.93
2016-04-05T07:14:01.198Z,90.41
2016-04-05T07:15:01.232Z,90.12
2016-04-05T07:16:01.235Z,89.83
2016-04-05T07:17:01.269Z,90.12
2016-04-05T07:18:01.288Z,90.31
2016-04-05T07:19:01.305Z,89.93
2016-04-05T07:20:01.324Z,89.93
2016-04-05T07:21:01.342Z,90.31
2016-04-05T07:22:01.344Z,90.12
2016-04-05T07:23:01.379Z,89.74
2016-04-05T07:24:01.397Z,90.69
2016-04-05T07:25:01.415Z,90.12
2016-04-05T07:26:01.449Z,89.93
2016-04-05T07:27:00.717Z,89.93
2016-04-05T07:28:01.470Z,90.12
2016-04-05T07:29:01.504Z,89.74
2016-04-05T07:30:01.537Z,90.69
2016-04-05T07:31:01.541Z,89.93
2016-04-05T07:32:01.559Z,90.31
2016-04-05T07:33:01.592Z,89.93
2016-04-05T07:34:01.595Z,89.83
2016-04-05T07:35:01.614Z,89.83
2016-04-05T07:36:01.632Z,89.17
2016-04-05T07:37:01.650Z,89.93
2016-04-05T07:38:01.685Z,90.22
2016-04-05T07:39:01.703Z,89.83
2016-04-05T07:40:01.705Z,90.03
2016-04-05T07:41:01.739Z,90.12
2016-04-05T07:42:01.742Z,90.55
2016-04-05T07:43:01.776Z,90.31
2016-04-05T07:44:01.778Z,90.22
2016-04-05T07:45:01.813Z,90.69
2016-04-05T07:46:01.831Z,90.31
2016-04-05T07:47:01.849Z,90.5
2016-04-05T07:48:01.883Z,90.5
2016-04-05T07:49:01.886Z,89.93
2016-04-05T07:50:01.920Z,89.97
2016-04-05T07:51:01.922Z,89.74
2016-04-05T07:52:01.957Z,89.74
2016-04-05T07:53:01.960Z,90.22
2016-04-05T07:54:01.993Z,90.17
2016-04-05T07:55:02.027Z,89.78
2016-04-05T07:56:02.030Z,90.36
2016-04-05T07:57:02.048Z,90.17
2016-04-05T07:58:02.066Z,90.26
2016-04-05T07:59:02.085Z,90.17
2016-04-05T08:00:02.134Z,89.78
2016-04-05T08:01:02.121Z,89.97
2016-04-05T08:02:02.139Z,89.78
2016-04-05T08:03:02.174Z,90.55
2016-04-05T08:04:02.192Z,90.36
2016-04-05T08:05:02.195Z,90.17
2016-04-05T08:06:02.229Z,89.78
2016-04-05T08:07:02.247Z,90.17
2016-04-05T08:08:02.265Z,90.55
2016-04-05T08:09:02.284Z,90.45
2016-04-05T08:10:02.317Z,90.07
2016-04-05T08:11:02.336Z,90.36
2016-04-05T08:12:02.353Z,89.69
2016-04-05T08:13:02.357Z,89.88
2016-04-05T08:14:02.391Z,89.97
2016-04-05T08:15:02.409Z,89.78
2016-04-05T08:16:02.458Z,89.88
2016-04-05T08:17:02.461Z,89.97
2016-04-05T08:18:02.464Z,89.88
2016-04-05T08:19:02.497Z,89.31
2016-04-05T08:20:02.501Z,89.12
2016-04-05T08:21:02.519Z,89.97
2016-04-05T08:22:02.537Z,90.17
2016-04-05T08:23:02.555Z,89.88
2016-04-05T08:24:02.604Z,89.69
2016-04-05T08:25:02.593Z,89.69
2016-04-05T08:26:02.626Z,89.02
2016-04-05T08:27:02.644Z,88.92
2016-04-05T08:28:02.663Z,88.83
2016-04-05T08:29:02.681Z,89.02
2016-04-05T08:30:02.699Z,88.07
2016-04-05T08:31:02.718Z,88.16
2016-04-05T08:32:02.736Z,87.78
2016-04-05T08:33:02.754Z,87.97
2016-04-05T08:34:02.788Z,88.35
2016-04-05T08:35:02.807Z,87.97
2016-04-05T08:36:02.825Z,88.3
2016-04-05T08:37:02.843Z,89.06
2016-04-05T08:38:02.845Z,89.06
2016-04-05T08:39:02.880Z,88.78
2016-04-05T08:40:02.898Z,88.11
2016-04-05T08:41:02.931Z,88.3
2016-04-05T08:42:02.935Z,87.63
2016-04-05T08:43:02.969Z,87.63
2016-04-05T08:44:02.971Z,87.25
2016-04-05T08:45:03.005Z,87.82
2016-04-05T08:46:03.024Z,86.87
2016-04-05T08:47:03.042Z,87.25
2016-04-05T08:48:03.060Z,86.58
2016-04-05T08:49:03.079Z,86.96
2016-04-05T08:50:03.097Z,86.87
2016-04-05T08:51:03.115Z,86.68
2016-04-05T08:52:03.133Z,86.77
2016-04-05T08:53:03.167Z,86.58
2016-04-05T08:54:03.030Z,87.44
2016-04-05T08:55:03.188Z,86.96
2016-04-05T08:56:03.222Z,86.39
2016-04-05T08:57:03.241Z,86.58
2016-04-05T08:58:03.259Z,86.3
2016-04-05T08:59:03.277Z,85.82
2016-04-05T09:00:03.296Z,85.91
2016-04-05T09:01:02.564Z,85.82
2016-04-05T09:02:03.348Z,86.3
2016-04-05T09:03:03.351Z,87.15
2016-04-05T09:04:03.385Z,86.72
2016-04-05T09:05:03.403Z,86.63
2016-04-05T09:06:03.437Z,86.82
2016-04-05T09:07:03.439Z,86.82
2016-04-05T09:08:03.473Z,86.72
2016-04-05T09:09:03.476Z,86.34
2016-04-05T09:10:03.499Z,86.34
2016-04-05T09:11:03.518Z,85.86
2016-04-05T09:12:03.552Z,85.48
2016-04-05T09:13:03.570Z,85.86
2016-04-05T09:14:03.650Z,85.38
2016-04-05T09:15:03.653Z,85.48
2016-04-05T09:16:03.672Z,86.24
2016-04-05T09:17:03.705Z,85.48
2016-04-05T09:18:03.724Z,85.29
2016-04-05T09:19:03.727Z,85.77
2016-04-05T09:20:03.777Z,85.29
2016-04-05T09:21:04.216Z,85.29
2016-04-05T09:22:03.797Z,85.1
2016-04-05T09:23:03.769Z,85
2016-04-05T09:24:03.818Z,85.48
2016-04-05T09:25:03.805Z,85.42
2016-04-05T09:26:03.839Z,85.33
2016-04-05T09:27:03.858Z,84.52
2016-04-05T09:28:03.876Z,85.05
2016-04-05T09:29:03.910Z,85.14
2016-04-05T09:30:03.896Z,85.9
2016-04-05T09:31:04.040Z,86
2016-04-05T09:32:03.965Z,85.71
2016-04-05T09:33:03.983Z,85.71
2016-04-05T09:34:04.001Z,85.62
2016-04-05T09:35:04.020Z,85.24
2016-04-05T09:36:04.038Z,85.9
2016-04-05T09:37:04.057Z,85.33
2016-04-05T09:38:04.075Z,85.58
2016-04-05T09:39:04.515Z,85.77
2016-04-05T09:40:04.127Z,85.19
2016-04-05T09:41:04.145Z,85.86
2016-04-05T09:42:04.147Z,86.05
2016-04-05T09:43:04.182Z,86.15
2016-04-05T09:44:04.200Z,86.05
2016-04-05T09:45:04.218Z,86.24
2016-04-05T09:46:04.346Z,86.24
2016-04-05T09:47:04.255Z,85.86
2016-04-05T09:48:04.273Z,85.77
2016-04-05T09:49:04.307Z,85.29
2016-04-05T09:50:04.326Z,85.48
2016-04-05T09:51:04.344Z,85.38
2016-04-05T09:52:04.362Z,85
2016-04-05T09:53:04.381Z,85.1
2016-04-05T09:54:04.399Z,84.52
2016-04-05T09:55:04.418Z,85
2016-04-05T09:56:04.435Z,84.91
2016-04-05T09:57:04.501Z,84.91
2016-04-05T09:58:04.504Z,85.1
2016-04-05T09:59:04.521Z,84.91
2016-04-05T10:00:04.524Z,85.38
2016-04-05T10:01:04.667Z,85.38
2016-04-05T10:02:04.562Z,85.48
2016-04-05T10:03:04.579Z,85.38
2016-04-05T10:04:04.645Z,85.1
2016-04-05T10:05:04.647Z,84.72
2016-04-05T10:06:04.681Z,84.72
2016-04-05T10:07:04.714Z,84.81
2016-04-05T10:08:04.686Z,85
2016-04-05T10:09:04.705Z,85.42
2016-04-05T10:10:04.722Z,84.91
2016-04-05T10:11:04.756Z,85.33
2016-04-05T10:12:04.775Z,85.48
2016-04-05T10:13:04.794Z,84.76
2016-04-05T10:14:04.828Z,85.62
2016-04-05T10:15:04.847Z,85.05
2016-04-05T10:16:04.708Z,84.85
2016-04-05T10:17:04.867Z,84.76
2016-04-05T10:18:04.901Z,84.76
2016-04-05T10:19:04.919Z,84.76
2016-04-05T10:20:04.953Z,85.05
2016-04-05T10:21:04.955Z,84.76
2016-04-05T10:22:04.974Z,84.85
2016-04-05T10:23:04.993Z,84.91
2016-04-05T10:24:05.026Z,85.1
2016-04-05T10:25:05.030Z,85.29
2016-04-05T10:26:05.063Z,85.29
2016-04-05T10:27:05.082Z,85
2016-04-05T10:28:05.100Z,85.1
2016-04-05T10:29:05.118Z,84.52
2016-04-05T10:30:05.137Z,84.76
2016-04-05T10:31:05.185Z,84.38
2016-04-05T10:32:05.188Z,84.56
2016-04-05T10:33:05.191Z,84.76
2016-04-05T10:34:05.226Z,84.09
2016-04-05T10:35:05.243Z,83.99
2016-04-05T10:36:05.262Z,83.33
2016-04-05T10:37:05.139Z,82.84
2016-04-05T10:38:05.314Z,82.75
2016-04-05T10:39:05.348Z,82.46
2016-04-05T10:40:05.350Z,82.65
2016-04-05T10:41:05.369Z,83.13
2016-04-05T10:42:05.403Z,82.79
2016-04-05T10:43:05.436Z,82.03
2016-04-05T10:44:05.456Z,81.93
2016-04-05T10:45:05.442Z,80.88
2016-04-05T10:46:05.476Z,81.07
2016-04-05T10:47:05.494Z,81.45
2016-04-05T10:48:05.528Z,81.45
2016-04-05T10:49:05.547Z,81.16
2016-04-05T10:50:05.565Z,81.26
2016-04-05T10:51:05.583Z,81.16
2016-04-05T10:52:05.586Z,80.88
2016-04-05T10:53:05.619Z,80.5
2016-04-05T10:54:05.638Z,80.25
2016-04-05T10:55:05.671Z,79.58
2016-04-05T10:56:05.675Z,79.39
2016-04-05T10:57:05.709Z,78.24
2016-04-05T10:58:05.712Z,78.34
2016-04-05T10:59:05.746Z,78.86
2016-04-05T11:00:05.764Z,78.38
2016-04-05T11:01:05.782Z,76.56
2016-04-05T11:02:05.816Z,76.18
2016-04-05T11:03:05.834Z,76.08
2016-04-05T11:04:05.854Z,76.37
2016-04-05T11:05:05.871Z,77.04
2016-04-05T11:06:05.890Z,76.46
2016-04-05T11:07:05.924Z,75.51
2016-04-05T11:08:05.933Z,75.6
2016-04-05T11:09:05.973Z,75.93
2016-04-05T11:10:05.976Z,75.93
2016-04-05T11:11:05.995Z,76.4
2016-04-05T11:12:05.887Z,74.87
2016-04-05T11:13:06.031Z,73.72
2016-04-05T11:14:06.065Z,73.72
2016-04-05T11:15:06.084Z,73.86
2016-04-05T11:16:06.102Z,73.57
2016-04-05T11:17:06.120Z,73.28
2016-04-05T11:18:06.154Z,73.66
2016-04-05T11:19:06.157Z,73.47
2016-04-05T11:20:06.034Z,72.99
2016-04-05T11:21:06.209Z,72.23
2016-04-05T11:22:06.243Z,71.66
2016-04-05T11:23:06.246Z,72.23
2016-04-05T11:24:06.264Z,72.23
2016-04-05T11:25:06.313Z,71.88
2016-04-05T11:26:06.332Z,72.07
2016-04-05T11:27:06.335Z,71.4
2016-04-05T11:28:06.369Z,70.73
2016-04-05T11:29:06.387Z,69.87
2016-04-05T11:30:06.405Z,68.24
2016-04-05T11:31:06.424Z,68.81
2016-04-05T11:32:06.458Z,69.52
2016-04-05T11:33:06.476Z,67.22
2016-04-05T11:34:06.525Z,66.83
2016-04-05T11:35:06.544Z,67.12
2016-04-05T11:36:06.562Z,67.5
2016-04-05T11:37:06.580Z,67.41
2016-04-05T11:38:06.598Z,67.79
2016-04-05T11:39:06.617Z,66.16
2016-04-05T11:40:06.635Z,66.55
2016-04-05T11:41:06.668Z,66.45
2016-04-05T11:42:06.687Z,66
2016-04-05T11:43:06.720Z,65.52
2016-04-05T11:44:06.770Z,63.76
2016-04-05T11:45:06.758Z,62.71
2016-04-05T11:46:06.775Z,64.15
2016-04-05T11:47:06.810Z,63
2016-04-05T11:48:06.828Z,62.71
2016-04-05T11:49:06.878Z,63.09
2016-04-05T11:50:06.896Z,63
2016-04-05T11:51:06.912Z,64.72
2016-04-05T11:52:06.923Z,63
2016-04-05T11:53:06.931Z,63.19
2016-04-05T11:54:06.941Z,63.76
2016-04-05T11:55:06.951Z,64.53
2016-04-05T11:56:06.961Z,64.53
2016-04-05T11:57:06.993Z,64.82
2016-04-05T11:58:07.007Z,64.82
2016-04-05T11:59:07.037Z,63.89
2016-04-05T12:00:07.038Z,61.66
2016-04-05T12:01:07.069Z,61.85
2016-04-05T12:02:07.102Z,61.75
2016-04-05T12:03:07.120Z,60.89
2016-04-05T12:04:07.136Z,61.27
2016-04-05T12:05:07.153Z,60.25
2016-04-05T12:06:07.187Z,60.12
2016-04-05T12:07:07.205Z,61.56
2016-04-05T12:08:07.222Z,61.69
2016-04-05T12:09:07.271Z,59.64
2016-04-05T12:10:07.273Z,60.03
2016-04-05T12:11:07.292Z,60.03
2016-04-05T12:12:07.326Z,59.48
2016-04-05T12:13:07.344Z,58.52
2016-04-05T12:14:07.362Z,58.11
2016-04-05T12:15:07.381Z,58.39
2016-04-05T12:16:07.414Z,59.74
2016-04-05T12:17:07.433Z,59.36
2016-04-05T12:18:07.451Z,58.87
2016-04-05T12:19:07.486Z,58.11
2016-04-05T12:20:07.503Z,58.3
2016-04-05T12:21:07.506Z,58.78
2016-04-05T12:22:07.540Z,57.82
2016-04-05T12:23:07.558Z,58.69
2016-04-05T12:24:07.592Z,57.82
2016-04-05T12:25:07.611Z,57.72
2016-04-05T12:26:07.613Z,57.92
2016-04-05T12:27:07.663Z,57.43
2016-04-05T12:28:07.681Z,58.3
2016-04-05T12:29:07.700Z,58.11
2016-04-05T12:30:07.733Z,58.01
2016-04-05T12:31:07.736Z,57.63
2016-04-05T12:32:07.754Z,57.06
2016-04-05T12:33:07.835Z,57.34
2016-04-05T12:34:07.868Z,57.92
2016-04-05T12:35:07.871Z,58.01
2016-04-05T12:36:07.937Z,58.59
2016-04-05T12:37:07.877Z,57.43
2016-04-05T12:38:07.959Z,56.76
2016-04-05T12:39:07.930Z,56.38
2016-04-05T12:40:08.026Z,57.08
2016-04-05T12:41:07.981Z,56.86
2016-04-05T12:42:08.047Z,57.43
2016-04-05T12:43:08.034Z,57.28
2016-04-05T12:44:08.053Z,56.79
2016-04-05T12:45:08.071Z,57.46
2016-04-05T12:46:08.089Z,56.89
2016-04-05T12:47:08.122Z,56.89
2016-04-05T12:48:08.142Z,56.79
2016-04-05T12:49:08.160Z,56.79
2016-04-05T12:50:08.178Z,56.79
2016-04-05T12:51:08.212Z,56.38
2016-04-05T12:52:08.231Z,57.24
2016-04-05T12:53:08.249Z,57.63
2016-04-05T12:54:08.595Z,57.92
2016-04-05T12:55:08.300Z,58.01
2016-04-05T12:56:08.319Z,58.11
2016-04-05T12:57:08.337Z,58.39